Terminal Aerodrome Forecast
Issued by NWS

Home | Current Version | Previous Version | Text Only | Print | Product List | Glossary On
Versions: 1 2 3 4 5 6 7 8 9 10 11 12
000
FTUS42 TJSJ 021145
TAFNCM
TAF
TNCM 021145Z 0212/0312 09016KT P6SM VCSH SCT018 BKN040
     FM021300 10012KT P6SM SCT020
     FM021800 10015G20KT P6SM VCSH SCT020 SCT030=

USA.gov is the U.S. government's official web portal to all federal, state and local government web resources and services.